createdAt,value
2022-07-29T00:01:44.580Z,23.80
2022-07-29T00:04:14.275Z,23.80
2022-07-29T00:06:42.244Z,23.80
2022-07-29T00:09:09.202Z,23.80
2022-07-29T00:11:36.080Z,23.80
2022-07-29T00:14:03.210Z,23.80
2022-07-29T00:16:30.187Z,23.80
2022-07-29T00:19:02.301Z,23.70
2022-07-29T00:21:31.892Z,23.80
2022-07-29T00:23:59.148Z,23.80
2022-07-29T00:26:32.599Z,23.80
2022-07-29T00:29:33.007Z,23.80
2022-07-29T00:31:56.204Z,23.70
2022-07-29T00:34:41.656Z,23.80
2022-07-29T00:37:08.661Z,23.80
2022-07-29T00:39:36.024Z,23.80
2022-07-29T00:42:06.862Z,23.70
2022-07-29T00:44:41.875Z,23.70
2022-07-29T00:47:11.263Z,23.70
2022-07-29T00:49:42.462Z,23.70
2022-07-29T00:52:13.085Z,23.70
2022-07-29T00:54:44.952Z,23.70
2022-07-29T00:57:13.591Z,23.70
2022-07-29T00:59:43.996Z,23.70
2022-07-29T01:02:11.102Z,23.70
2022-07-29T01:04:38.084Z,23.70
2022-07-29T01:07:08.535Z,23.70
2022-07-29T01:09:46.321Z,23.70
2022-07-29T01:12:24.595Z,23.70
2022-07-29T01:14:54.231Z,23.70
2022-07-29T01:17:38.369Z,23.70
2022-07-29T01:20:14.731Z,23.70
2022-07-29T01:23:12.077Z,23.70
2022-07-29T01:26:29.163Z,23.70
2022-07-29T01:29:40.304Z,23.70
2022-07-29T01:32:27.343Z,23.70
2022-07-29T01:35:11.259Z,23.70
2022-07-29T01:38:00.306Z,23.70
2022-07-29T01:40:31.943Z,23.70
2022-07-29T01:43:19.621Z,23.70
2022-07-29T01:45:55.029Z,23.70
2022-07-29T01:48:41.856Z,23.70
2022-07-29T01:51:15.762Z,23.70
2022-07-29T01:53:58.568Z,23.70
2022-07-29T01:56:33.619Z,23.70
2022-07-29T01:59:02.613Z,23.70
2022-07-29T02:01:35.827Z,23.70
2022-07-29T02:04:29.604Z,23.70
2022-07-29T02:07:08.154Z,23.70
2022-07-29T02:09:45.669Z,23.70
2022-07-29T02:12:20.539Z,23.60
2022-07-29T02:14:52.413Z,23.60
2022-07-29T02:17:32.151Z,23.60
2022-07-29T02:20:06.386Z,23.60
2022-07-29T02:22:41.960Z,23.60
2022-07-29T02:25:13.946Z,23.50
2022-07-29T02:27:45.822Z,23.50
2022-07-29T02:30:14.028Z,23.50
2022-07-29T02:32:47.062Z,23.50
2022-07-29T02:35:17.094Z,23.40
2022-07-29T02:38:08.399Z,23.40
2022-07-29T02:40:39.922Z,23.40
2022-07-29T02:43:09.030Z,23.30
2022-07-29T02:45:42.290Z,23.30
2022-07-29T02:48:17.087Z,23.30
2022-07-29T02:51:00.577Z,23.20
2022-07-29T02:53:31.078Z,23.20
2022-07-29T02:56:09.136Z,23.20
2022-07-29T02:58:43.833Z,23.10
2022-07-29T03:01:26.302Z,23.10
2022-07-29T03:03:55.393Z,23.10
2022-07-29T03:06:38.560Z,23.00
2022-07-29T03:09:13.342Z,23.10
2022-07-29T03:11:49.462Z,23.00
2022-07-29T03:14:23.901Z,23.00
2022-07-29T03:16:54.020Z,23.00
2022-07-29T03:19:24.555Z,22.90
2022-07-29T03:21:52.280Z,22.90
2022-07-29T03:24:37.131Z,22.90
2022-07-29T03:27:06.615Z,22.90
2022-07-29T03:29:34.651Z,22.80
2022-07-29T03:32:08.471Z,22.80
2022-07-29T03:34:38.411Z,22.80
2022-07-29T03:37:08.433Z,22.80
2022-07-29T03:39:44.867Z,22.70
2022-07-29T03:42:16.129Z,22.70
2022-07-29T03:44:49.056Z,22.70
2022-07-29T03:47:20.127Z,22.70
2022-07-29T03:49:53.393Z,22.60
2022-07-29T03:52:23.265Z,22.50
2022-07-29T03:54:50.500Z,22.50
2022-07-29T03:57:25.911Z,22.40
2022-07-29T03:59:54.269Z,22.40
2022-07-29T04:02:30.528Z,22.30
2022-07-29T04:04:57.904Z,22.30
2022-07-29T04:07:24.908Z,22.20
2022-07-29T04:09:51.861Z,22.20
2022-07-29T04:12:20.259Z,22.10
2022-07-29T04:14:49.727Z,22.10
2022-07-29T04:17:16.769Z,22.00
2022-07-29T04:19:46.035Z,22.00
2022-07-29T04:22:14.228Z,21.90
2022-07-29T04:24:44.177Z,21.90
2022-07-29T04:27:12.249Z,21.80
2022-07-29T04:29:56.880Z,21.80
2022-07-29T04:32:27.743Z,21.70
2022-07-29T04:34:54.570Z,21.70
2022-07-29T04:37:23.867Z,21.70
2022-07-29T04:39:51.515Z,21.60
2022-07-29T04:42:18.356Z,21.60
2022-07-29T04:44:54.383Z,21.60
2022-07-29T04:47:23.667Z,21.50
2022-07-29T04:49:53.465Z,21.50
2022-07-29T04:52:23.269Z,21.50
2022-07-29T04:54:50.283Z,21.50
2022-07-29T04:57:17.089Z,21.40
2022-07-29T04:59:46.190Z,21.40
2022-07-29T05:02:18.590Z,21.50
2022-07-29T05:04:45.407Z,21.40
2022-07-29T05:07:15.152Z,21.40
2022-07-29T05:09:44.210Z,21.40
2022-07-29T05:12:13.518Z,21.40
2022-07-29T05:14:42.574Z,21.40
2022-07-29T05:17:14.450Z,21.40
2022-07-29T05:19:41.274Z,21.40
2022-07-29T05:22:10.169Z,21.40
2022-07-29T05:24:37.138Z,21.40
2022-07-29T05:27:06.661Z,21.40
2022-07-29T05:29:42.668Z,21.40
2022-07-29T05:32:13.900Z,21.40
2022-07-29T05:34:51.147Z,21.40
2022-07-29T05:37:20.416Z,21.50
2022-07-29T05:39:56.250Z,21.50
2022-07-29T05:42:30.095Z,21.50
2022-07-29T05:44:57.221Z,21.50
2022-07-29T05:47:24.870Z,21.50
2022-07-29T05:49:54.884Z,21.50
2022-07-29T05:52:24.520Z,21.50
2022-07-29T05:54:54.408Z,21.50
2022-07-29T05:57:23.856Z,21.50
2022-07-29T05:59:51.678Z,21.60
2022-07-29T06:02:18.960Z,21.60
2022-07-29T06:04:48.148Z,21.60
2022-07-29T06:07:17.562Z,21.60
2022-07-29T06:09:46.493Z,21.70
2022-07-29T06:12:13.384Z,21.70
2022-07-29T06:14:42.340Z,21.70
2022-07-29T06:17:12.567Z,21.80
2022-07-29T06:19:41.864Z,21.80
2022-07-29T06:22:08.755Z,21.90
2022-07-29T06:24:42.456Z,21.90
2022-07-29T06:27:10.647Z,22.00
2022-07-29T06:29:40.319Z,22.00
2022-07-29T06:32:07.784Z,22.10
2022-07-29T06:34:34.658Z,22.10
2022-07-29T06:37:15.629Z,22.20
2022-07-29T06:39:42.629Z,22.20
2022-07-29T06:42:09.422Z,22.20
2022-07-29T06:44:38.783Z,22.30
2022-07-29T06:47:07.821Z,22.30
2022-07-29T06:49:34.593Z,22.40
2022-07-29T06:52:03.665Z,22.40
2022-07-29T06:54:32.657Z,22.50
2022-07-29T06:57:00.048Z,22.60
2022-07-29T06:59:35.138Z,22.60
2022-07-29T07:02:04.916Z,22.70
2022-07-29T07:04:31.926Z,22.80
2022-07-29T07:07:00.030Z,22.90
2022-07-29T07:09:26.915Z,22.90
2022-07-29T07:12:07.930Z,23.00
2022-07-29T07:14:34.874Z,23.00
2022-07-29T07:17:04.849Z,23.10
2022-07-29T07:19:34.252Z,23.10
2022-07-29T07:22:01.102Z,23.20
2022-07-29T07:24:28.453Z,23.30
2022-07-29T07:26:57.864Z,23.30
2022-07-29T07:29:29.205Z,23.40
2022-07-29T07:32:00.979Z,23.50
2022-07-29T07:34:29.727Z,23.50
2022-07-29T07:37:01.394Z,23.60
2022-07-29T07:39:30.894Z,23.70
2022-07-29T07:42:00.001Z,23.80
2022-07-29T07:44:26.907Z,23.90
2022-07-29T07:46:55.983Z,23.90
2022-07-29T07:49:27.389Z,24.00
2022-07-29T07:51:54.161Z,24.10
2022-07-29T07:54:23.017Z,24.20
2022-07-29T07:56:54.773Z,24.30
2022-07-29T07:59:24.047Z,24.40
2022-07-29T08:01:55.571Z,24.40
2022-07-29T08:04:28.246Z,24.50
2022-07-29T08:06:59.679Z,24.60
2022-07-29T08:09:30.548Z,24.70
2022-07-29T08:12:03.210Z,24.70
2022-07-29T08:14:31.450Z,24.80
2022-07-29T08:17:03.125Z,24.90
2022-07-29T08:19:32.006Z,25.00
2022-07-29T08:21:58.870Z,25.10
2022-07-29T08:24:46.614Z,25.20
2022-07-29T08:27:40.592Z,25.30
2022-07-29T08:30:07.367Z,25.40
2022-07-29T08:32:53.019Z,25.40
2022-07-29T08:35:25.047Z,25.50
2022-07-29T08:37:57.776Z,25.60
2022-07-29T08:40:30.523Z,25.70
2022-07-29T08:43:07.895Z,25.80
2022-07-29T08:45:50.099Z,25.90
2022-07-29T08:48:25.608Z,26.00
2022-07-29T08:50:57.390Z,26.10
2022-07-29T08:53:29.603Z,26.20
2022-07-29T08:55:57.801Z,26.20
2022-07-29T08:58:27.614Z,26.30
2022-07-29T09:01:00.409Z,26.40
2022-07-29T09:03:32.618Z,26.50
2022-07-29T09:06:04.165Z,26.60
2022-07-29T09:08:33.663Z,26.60
2022-07-29T09:11:03.818Z,26.70
2022-07-29T09:13:35.841Z,26.90
2022-07-29T09:16:09.339Z,26.90
2022-07-29T09:18:40.755Z,27.10
2022-07-29T09:21:28.644Z,27.20
2022-07-29T09:24:14.119Z,27.20
2022-07-29T09:26:48.489Z,27.30
2022-07-29T09:29:23.167Z,27.40
2022-07-29T09:31:53.247Z,27.50
2022-07-29T09:34:26.631Z,27.60
2022-07-29T09:36:58.436Z,27.70
2022-07-29T09:39:46.366Z,27.80
2022-07-29T09:42:14.281Z,27.90
2022-07-29T09:44:50.435Z,28.00
2022-07-29T09:47:26.736Z,28.10
2022-07-29T09:50:03.249Z,28.20
2022-07-29T09:52:32.558Z,28.30
2022-07-29T09:55:18.211Z,28.40
2022-07-29T09:57:47.253Z,28.60
2022-07-29T10:00:23.876Z,28.60
2022-07-29T10:02:51.716Z,28.70
2022-07-29T10:05:36.131Z,28.80
2022-07-29T10:08:04.569Z,28.80
2022-07-29T10:10:35.427Z,28.90
2022-07-29T10:13:13.564Z,28.90
2022-07-29T10:15:47.869Z,29.00
2022-07-29T10:18:18.188Z,29.20
2022-07-29T10:20:45.349Z,29.30
2022-07-29T10:23:13.544Z,29.40
2022-07-29T10:25:45.683Z,29.40
2022-07-29T10:28:16.488Z,29.60
2022-07-29T10:30:49.763Z,29.70
2022-07-29T10:33:59.774Z,29.90
2022-07-29T10:37:07.078Z,30.00
2022-07-29T10:40:00.468Z,30.20
2022-07-29T10:42:34.584Z,30.40
2022-07-29T10:45:04.632Z,30.50
2022-07-29T10:47:32.306Z,30.60
2022-07-29T10:50:08.956Z,30.80
2022-07-29T10:53:08.939Z,30.80
2022-07-29T10:55:47.767Z,31.00
2022-07-29T10:58:23.453Z,31.00
2022-07-29T11:00:57.568Z,31.20
2022-07-29T11:03:52.455Z,31.40
2022-07-29T11:06:28.190Z,31.60
2022-07-29T11:09:34.962Z,31.80
2022-07-29T11:12:05.417Z,32.00
2022-07-29T11:15:03.568Z,32.20
2022-07-29T11:17:53.011Z,32.40
2022-07-29T11:20:45.810Z,32.50
2022-07-29T11:23:36.630Z,32.50
2022-07-29T11:26:23.371Z,32.60
2022-07-29T11:29:06.984Z,32.80
2022-07-29T11:31:45.480Z,33.00
2022-07-29T11:34:33.012Z,33.20
2022-07-29T11:37:17.655Z,33.40
2022-07-29T11:40:04.797Z,33.60
2022-07-29T11:42:35.391Z,33.80
2022-07-29T11:45:41.606Z,34.00
2022-07-29T11:48:27.574Z,34.30
2022-07-29T11:50:58.513Z,34.50
2022-07-29T11:53:29.234Z,34.70
2022-07-29T11:56:01.279Z,34.80
2022-07-29T11:58:35.226Z,34.90
2022-07-29T12:01:06.081Z,35.10
2022-07-29T12:03:36.002Z,35.20
2022-07-29T12:06:20.965Z,35.40
2022-07-29T12:08:48.032Z,35.50
2022-07-29T12:11:23.582Z,35.70
2022-07-29T12:13:56.063Z,35.90
2022-07-29T12:16:25.359Z,36.10
2022-07-29T12:19:02.433Z,36.30
2022-07-29T12:21:45.729Z,36.60
2022-07-29T12:24:22.631Z,36.90
2022-07-29T12:26:59.294Z,37.30
2022-07-29T12:29:34.774Z,37.60
2022-07-29T12:32:07.296Z,37.80
2022-07-29T12:34:44.460Z,38.10
2022-07-29T12:37:12.043Z,38.30
2022-07-29T12:39:39.687Z,38.50
2022-07-29T12:42:18.771Z,38.80
2022-07-29T12:44:52.334Z,39.00
2022-07-29T12:47:21.912Z,39.20
2022-07-29T12:49:52.326Z,39.40
2022-07-29T12:52:35.006Z,39.80
2022-07-29T12:55:04.832Z,40.00
2022-07-29T12:57:46.850Z,40.20
2022-07-29T13:00:15.326Z,40.30
2022-07-29T13:02:56.230Z,40.40
2022-07-29T13:05:23.346Z,40.60
2022-07-29T13:07:55.740Z,40.70
2022-07-29T13:10:25.013Z,40.70
2022-07-29T13:13:11.459Z,40.70
2022-07-29T13:15:47.855Z,40.70
2022-07-29T13:18:38.690Z,40.80
2022-07-29T13:21:16.521Z,41.00
2022-07-29T13:23:43.586Z,41.30
2022-07-29T13:26:17.204Z,41.40
2022-07-29T13:28:46.154Z,41.50
2022-07-29T13:31:13.149Z,41.60
2022-07-29T13:33:42.372Z,41.70
2022-07-29T13:36:11.558Z,41.80
2022-07-29T13:38:43.050Z,41.80
2022-07-29T13:41:12.062Z,41.90
2022-07-29T13:43:38.899Z,41.90
2022-07-29T13:46:10.651Z,42.00
2022-07-29T13:48:37.583Z,42.00
2022-07-29T13:51:09.033Z,42.00
2022-07-29T13:53:38.271Z,42.10
2022-07-29T13:56:06.799Z,42.20
2022-07-29T13:58:34.774Z,42.30
2022-07-29T14:01:06.365Z,42.30
2022-07-29T14:03:33.664Z,42.30
2022-07-29T14:06:00.951Z,42.20
2022-07-29T14:08:30.644Z,42.00
2022-07-29T14:10:57.398Z,41.80
2022-07-29T14:13:29.280Z,41.50
2022-07-29T14:15:59.126Z,41.00
2022-07-29T14:18:26.027Z,40.60
2022-07-29T14:20:55.310Z,40.20
2022-07-29T14:23:22.160Z,39.80
2022-07-29T14:25:52.611Z,39.40
2022-07-29T14:28:23.399Z,39.00
2022-07-29T14:30:50.314Z,38.60
2022-07-29T14:33:17.392Z,38.20
2022-07-29T14:35:47.250Z,37.80
2022-07-29T14:38:14.197Z,37.40
2022-07-29T14:40:43.288Z,37.00
2022-07-29T14:43:12.360Z,36.50
2022-07-29T14:45:42.196Z,35.90
2022-07-29T14:48:09.127Z,35.40
2022-07-29T14:50:36.118Z,35.00
2022-07-29T14:53:05.410Z,34.60
2022-07-29T14:55:32.262Z,34.20
2022-07-29T14:58:10.885Z,34.00
2022-07-29T15:00:45.659Z,33.70
2022-07-29T15:03:23.823Z,33.40
2022-07-29T15:05:53.928Z,33.20
2022-07-29T15:08:21.188Z,32.90
2022-07-29T15:10:51.019Z,32.80
2022-07-29T15:13:17.795Z,32.60
2022-07-29T15:15:45.577Z,32.40
2022-07-29T15:18:14.871Z,32.30
2022-07-29T15:20:52.362Z,32.20
2022-07-29T15:23:23.345Z,32.10
2022-07-29T15:25:52.423Z,32.00
2022-07-29T15:28:19.258Z,32.00
2022-07-29T15:30:46.130Z,32.00
2022-07-29T15:33:12.967Z,32.00
2022-07-29T15:35:40.387Z,32.00
2022-07-29T15:38:10.029Z,32.00
2022-07-29T15:40:42.049Z,31.90
2022-07-29T15:43:08.834Z,31.90
2022-07-29T15:46:03.358Z,31.90
2022-07-29T15:48:32.605Z,31.90
2022-07-29T15:51:07.003Z,31.90
2022-07-29T15:53:33.900Z,31.90
2022-07-29T15:56:09.828Z,31.90
2022-07-29T15:58:39.081Z,31.90
2022-07-29T16:01:05.897Z,31.90
2022-07-29T16:03:33.559Z,31.90
2022-07-29T16:06:05.710Z,31.90
2022-07-29T16:08:34.935Z,31.90
2022-07-29T16:11:05.694Z,31.80
2022-07-29T16:13:32.479Z,31.80
2022-07-29T16:16:03.216Z,31.70
2022-07-29T16:18:32.513Z,31.60
2022-07-29T16:20:59.477Z,31.60
2022-07-29T16:23:26.284Z,31.50
2022-07-29T16:26:01.267Z,31.40
2022-07-29T16:28:32.420Z,31.40
2022-07-29T16:30:59.493Z,31.30
2022-07-29T16:33:28.876Z,31.10
2022-07-29T16:36:18.493Z,31.10
2022-07-29T16:38:48.982Z,30.90
2022-07-29T16:41:18.290Z,30.80
2022-07-29T16:43:45.167Z,30.80
2022-07-29T16:46:14.011Z,30.60
2022-07-29T16:48:46.253Z,30.50
2022-07-29T16:51:16.070Z,30.40
2022-07-29T16:53:45.549Z,30.30
2022-07-29T16:56:19.083Z,30.20
2022-07-29T16:58:45.853Z,30.10
2022-07-29T17:01:15.928Z,30.00
2022-07-29T17:04:03.786Z,30.00
2022-07-29T17:06:35.025Z,29.90
2022-07-29T17:09:04.739Z,29.90
2022-07-29T17:11:53.592Z,29.90
2022-07-29T17:14:34.107Z,29.90
2022-07-29T17:17:12.268Z,29.90
2022-07-29T17:19:45.380Z,29.80
2022-07-29T17:22:18.741Z,29.70
2022-07-29T17:24:46.953Z,29.60
2022-07-29T17:27:16.234Z,29.50
2022-07-29T17:29:43.620Z,29.40
2022-07-29T17:32:14.021Z,29.30
2022-07-29T17:34:43.776Z,29.20
2022-07-29T17:37:14.221Z,29.10
2022-07-29T17:39:47.068Z,29.00
2022-07-29T17:42:16.329Z,28.90
2022-07-29T17:44:46.628Z,28.70
2022-07-29T17:47:16.495Z,28.60
2022-07-29T17:49:44.997Z,28.50
2022-07-29T17:52:11.979Z,28.40
2022-07-29T17:54:43.355Z,28.30
2022-07-29T17:57:12.324Z,28.20
2022-07-29T17:59:39.416Z,28.20
2022-07-29T18:02:06.958Z,28.10
2022-07-29T18:04:34.145Z,28.00
2022-07-29T18:07:03.672Z,28.00
2022-07-29T18:09:32.554Z,27.90
2022-07-29T18:12:06.478Z,27.90
2022-07-29T18:14:34.271Z,27.80
2022-07-29T18:17:03.407Z,27.70
2022-07-29T18:19:32.319Z,27.60
2022-07-29T18:22:03.531Z,27.50
2022-07-29T18:24:32.424Z,27.50
2022-07-29T18:26:59.716Z,27.40
2022-07-29T18:29:30.241Z,27.30
2022-07-29T18:31:59.811Z,27.20
2022-07-29T18:34:29.754Z,27.10
2022-07-29T18:37:01.709Z,27.00
2022-07-29T18:39:28.781Z,26.90
2022-07-29T18:42:00.128Z,26.90
2022-07-29T18:44:33.927Z,26.80
2022-07-29T18:47:11.935Z,26.70
2022-07-29T18:49:43.444Z,26.60
2022-07-29T18:52:13.265Z,26.50
2022-07-29T18:54:40.078Z,26.50
2022-07-29T18:57:54.745Z,26.40
2022-07-29T19:00:03.108Z,26.30
2022-07-29T19:02:30.147Z,26.20
2022-07-29T19:04:57.229Z,26.20
2022-07-29T19:07:26.794Z,26.20
2022-07-29T19:09:53.668Z,26.10
2022-07-29T19:12:22.702Z,26.10
2022-07-29T19:14:49.500Z,26.10
2022-07-29T19:17:16.293Z,26.10
2022-07-29T19:19:45.640Z,26.00
2022-07-29T19:22:13.376Z,26.00
2022-07-29T19:24:43.565Z,25.90
2022-07-29T19:27:10.296Z,25.90
2022-07-29T19:29:41.640Z,25.80
2022-07-29T19:32:11.079Z,25.80
2022-07-29T19:34:40.035Z,25.70
2022-07-29T19:37:13.364Z,25.70
2022-07-29T19:39:42.356Z,25.60
2022-07-29T19:42:10.082Z,25.60
2022-07-29T19:44:39.111Z,25.50
2022-07-29T19:47:08.102Z,25.50
2022-07-29T19:49:37.759Z,25.40
2022-07-29T19:52:07.939Z,25.40
2022-07-29T19:54:37.544Z,25.30
2022-07-29T19:57:04.911Z,25.30
2022-07-29T19:59:32.103Z,25.20
2022-07-29T20:02:02.018Z,25.20
2022-07-29T20:04:33.587Z,25.20
2022-07-29T20:07:02.022Z,25.20
2022-07-29T20:09:29.338Z,25.20
2022-07-29T20:12:00.930Z,25.10
2022-07-29T20:14:27.842Z,25.10
2022-07-29T20:16:57.086Z,25.10
2022-07-29T20:19:26.304Z,25.00
2022-07-29T20:21:55.806Z,25.00
2022-07-29T20:24:27.668Z,25.00
2022-07-29T20:26:57.224Z,25.00
2022-07-29T20:29:25.356Z,25.00
2022-07-29T20:31:56.711Z,25.00
2022-07-29T20:34:25.903Z,25.00
2022-07-29T20:36:55.204Z,24.90
2022-07-29T20:39:23.226Z,25.00
2022-07-29T20:41:52.795Z,24.90
2022-07-29T20:44:19.696Z,24.90
2022-07-29T20:46:47.127Z,24.90
2022-07-29T20:49:16.481Z,24.90
2022-07-29T20:51:47.816Z,24.90
2022-07-29T20:54:16.891Z,24.80
2022-07-29T20:56:43.737Z,24.90
2022-07-29T20:59:11.110Z,24.90
2022-07-29T21:01:38.070Z,24.90
2022-07-29T21:04:05.578Z,24.80
2022-07-29T21:06:32.421Z,24.90
2022-07-29T21:09:01.170Z,24.90
2022-07-29T21:11:43.770Z,24.90
2022-07-29T21:14:47.649Z,24.80
2022-07-29T21:17:21.272Z,24.80
2022-07-29T21:19:55.544Z,24.80
2022-07-29T21:22:24.660Z,24.80
2022-07-29T21:24:56.065Z,24.70
2022-07-29T21:27:43.369Z,24.70
2022-07-29T21:30:11.305Z,24.60
2022-07-29T21:32:40.764Z,24.50
2022-07-29T21:35:14.564Z,24.50
2022-07-29T21:37:56.604Z,24.40
2022-07-29T21:40:24.714Z,24.40
2022-07-29T21:42:52.127Z,24.40
2022-07-29T21:45:23.969Z,24.30
2022-07-29T21:47:53.227Z,24.30
2022-07-29T21:50:23.492Z,24.30
2022-07-29T21:52:50.607Z,24.30
2022-07-29T21:55:20.599Z,24.30
2022-07-29T21:57:54.078Z,24.30
2022-07-29T22:00:22.199Z,24.30
2022-07-29T22:02:53.062Z,24.20
2022-07-29T22:05:22.301Z,24.20
2022-07-29T22:07:54.284Z,24.20
2022-07-29T22:10:30.143Z,24.30
2022-07-29T22:12:59.683Z,24.20
2022-07-29T22:15:28.003Z,24.20
2022-07-29T22:17:57.347Z,24.20
2022-07-29T22:20:27.222Z,24.20
2022-07-29T22:22:54.786Z,24.20
2022-07-29T22:25:22.034Z,24.20
2022-07-29T22:27:49.627Z,24.10
2022-07-29T22:30:17.032Z,24.00
2022-07-29T22:32:44.239Z,24.00
2022-07-29T22:35:11.587Z,24.00
2022-07-29T22:37:39.359Z,23.90
2022-07-29T22:40:07.267Z,23.90
2022-07-29T22:42:35.275Z,23.80
2022-07-29T22:45:05.119Z,23.80
2022-07-29T22:47:39.021Z,23.80
2022-07-29T22:50:15.643Z,23.70
2022-07-29T22:52:47.040Z,23.70
2022-07-29T22:55:14.817Z,23.60
2022-07-29T22:57:46.378Z,23.60
2022-07-29T23:00:16.833Z,23.60
2022-07-29T23:02:47.574Z,23.60
2022-07-29T23:05:15.734Z,23.50
2022-07-29T23:07:43.220Z,23.60
2022-07-29T23:10:13.605Z,23.50
2022-07-29T23:12:40.460Z,23.50
2022-07-29T23:15:09.815Z,23.50
2022-07-29T23:17:37.282Z,23.50
2022-07-29T23:20:11.520Z,23.50
2022-07-29T23:22:41.775Z,23.50
2022-07-29T23:25:09.186Z,23.50
2022-07-29T23:27:38.829Z,23.50
2022-07-29T23:30:08.884Z,23.40
2022-07-29T23:32:35.812Z,23.50
2022-07-29T23:35:05.125Z,23.50
2022-07-29T23:37:34.774Z,23.40
2022-07-29T23:40:10.819Z,23.40
2022-07-29T23:42:46.108Z,23.40
2022-07-29T23:45:14.245Z,23.40
2022-07-29T23:47:42.154Z,23.40
2022-07-29T23:50:12.251Z,23.40
2022-07-29T23:52:44.220Z,23.40
2022-07-29T23:55:38.752Z,23.40
2022-07-29T23:58:05.690Z,23.40
